sensor_id;sensor_type;location;lat;lon;timestamp;pressure;altitude;pressure_sealevel;temperature;humidity
56614;BME280;75854;35.670;139.690;2024-03-08T00:02:14;100581.97;;;6.83;49.29
56614;BME280;75854;35.670;139.690;2024-03-08T00:04:43;100568.46;;;6.67;50.77
56614;BME280;75854;35.670;139.690;2024-03-08T00:07:13;100555.82;;;6.00;51.92
56614;BME280;75854;35.670;139.690;2024-03-08T00:09:42;100547.03;;;6.60;51.62
56614;BME280;75854;35.670;139.690;2024-03-08T00:12:12;100538.95;;;6.40;51.95
56614;BME280;75854;35.670;139.690;2024-03-08T00:14:42;100530.77;;;6.74;51.49
56614;BME280;75854;35.670;139.690;2024-03-08T00:17:11;100528.15;;;6.68;51.68
56614;BME280;75854;35.670;139.690;2024-03-08T00:19:41;100521.27;;;7.21;51.34
56614;BME280;75854;35.670;139.690;2024-03-08T00:22:10;100513.22;;;7.07;50.59
56614;BME280;75854;35.670;139.690;2024-03-08T00:24:40;100504.39;;;6.97;50.91
56614;BME280;75854;35.670;139.690;2024-03-08T00:27:09;100502.93;;;6.93;51.35
56614;BME280;75854;35.670;139.690;2024-03-08T00:29:39;100502.21;;;7.18;50.91
56614;BME280;75854;35.670;139.690;2024-03-08T00:32:08;100502.49;;;6.93;50.22
56614;BME280;75854;35.670;139.690;2024-03-08T00:34:38;100507.23;;;6.95;51.74
56614;BME280;75854;35.670;139.690;2024-03-08T00:37:09;100509.41;;;7.25;51.58
56614;BME280;75854;35.670;139.690;2024-03-08T00:39:39;100501.49;;;6.95;51.51
56614;BME280;75854;35.670;139.690;2024-03-08T00:42:09;100487.11;;;7.44;51.39
56614;BME280;75854;35.670;139.690;2024-03-08T00:44:38;100486.68;;;7.04;50.06
56614;BME280;75854;35.670;139.690;2024-03-08T00:47:09;100488.11;;;7.38;49.84
56614;BME280;75854;35.670;139.690;2024-03-08T00:49:40;100491.90;;;7.21;51.02
56614;BME280;75854;35.670;139.690;2024-03-08T00:52:11;100494.94;;;7.30;50.30
56614;BME280;75854;35.670;139.690;2024-03-08T00:54:40;100487.99;;;6.88;50.60
56614;BME280;75854;35.670;139.690;2024-03-08T00:57:10;100482.52;;;7.45;51.76
56614;BME280;75854;35.670;139.690;2024-03-08T00:59:40;100475.64;;;7.00;50.79
56614;BME280;75854;35.670;139.690;2024-03-08T01:02:10;100471.63;;;7.15;50.08
56614;BME280;75854;35.670;139.690;2024-03-08T01:04:40;100462.64;;;6.82;50.89
56614;BME280;75854;35.670;139.690;2024-03-08T01:07:10;100455.95;;;7.08;51.66
56614;BME280;75854;35.670;139.690;2024-03-08T01:09:39;100451.63;;;7.01;51.10
56614;BME280;75854;35.670;139.690;2024-03-08T01:12:09;100448.09;;;6.77;52.43
56614;BME280;75854;35.670;139.690;2024-03-08T01:14:38;100438.64;;;7.20;50.33
56614;BME280;75854;35.670;139.690;2024-03-08T01:17:08;100433.20;;;7.46;52.15
56614;BME280;75854;35.670;139.690;2024-03-08T01:19:38;100422.72;;;7.09;51.39
56614;BME280;75854;35.670;139.690;2024-03-08T01:22:08;100406.50;;;7.31;51.06
56614;BME280;75854;35.670;139.690;2024-03-08T01:24:37;100406.53;;;6.76;50.78
56614;BME280;75854;35.670;139.690;2024-03-08T01:27:07;100400.53;;;7.25;52.13
56614;BME280;75854;35.670;139.690;2024-03-08T01:29:37;100392.13;;;7.24;51.02
56614;BME280;75854;35.670;139.690;2024-03-08T01:32:07;100384.79;;;6.73;50.61
56614;BME280;75854;35.670;139.690;2024-03-08T01:34:37;100385.85;;;5.71;53.26
56614;BME280;75854;35.670;139.690;2024-03-08T01:37:07;100378.98;;;5.44;54.72
56614;BME280;75854;35.670;139.690;2024-03-08T01:39:36;100378.10;;;5.70;54.98
56614;BME280;75854;35.670;139.690;2024-03-08T01:42:06;100376.37;;;6.22;52.98
56614;BME280;75854;35.670;139.690;2024-03-08T01:44:36;100370.27;;;6.50;54.26
56614;BME280;75854;35.670;139.690;2024-03-08T01:47:05;100369.49;;;7.26;51.66
56614;BME280;75854;35.670;139.690;2024-03-08T01:49:36;100366.88;;;7.09;52.25
56614;BME280;75854;35.670;139.690;2024-03-08T01:52:06;100367.04;;;7.32;51.62
56614;BME280;75854;35.670;139.690;2024-03-08T01:54:37;100365.65;;;7.33;51.04
56614;BME280;75854;35.670;139.690;2024-03-08T01:57:07;100360.96;;;7.48;49.99
56614;BME280;75854;35.670;139.690;2024-03-08T01:59:37;100351.28;;;7.03;50.91
56614;BME280;75854;35.670;139.690;2024-03-08T02:02:08;100344.58;;;7.30;50.24
56614;BME280;75854;35.670;139.690;2024-03-08T02:04:38;100341.55;;;7.52;51.53
56614;BME280;75854;35.670;139.690;2024-03-08T02:07:09;100331.49;;;7.51;51.74
56614;BME280;75854;35.670;139.690;2024-03-08T02:09:39;100319.91;;;7.04;50.34
56614;BME280;75854;35.670;139.690;2024-03-08T02:12:14;100316.04;;;6.54;51.26
56614;BME280;75854;35.670;139.690;2024-03-08T02:14:43;100315.93;;;7.32;51.34
56614;BME280;75854;35.670;139.690;2024-03-08T02:17:13;100307.93;;;7.85;49.69
56614;BME280;75854;35.670;139.690;2024-03-08T02:19:43;100306.90;;;8.00;48.87
56614;BME280;75854;35.670;139.690;2024-03-08T02:22:12;100305.14;;;8.26;48.19
56614;BME280;75854;35.670;139.690;2024-03-08T02:24:42;100294.06;;;8.26;49.72
56614;BME280;75854;35.670;139.690;2024-03-08T02:27:11;100296.83;;;8.26;47.32
56614;BME280;75854;35.670;139.690;2024-03-08T02:29:42;100290.34;;;7.48;49.14
56614;BME280;75854;35.670;139.690;2024-03-08T02:32:12;100286.64;;;8.23;49.79
56614;BME280;75854;35.670;139.690;2024-03-08T02:34:41;100282.44;;;8.15;49.02
56614;BME280;75854;35.670;139.690;2024-03-08T02:37:11;100285.36;;;8.51;48.21
56614;BME280;75854;35.670;139.690;2024-03-08T02:39:41;100282.29;;;8.47;47.92
56614;BME280;75854;35.670;139.690;2024-03-08T02:42:10;100278.76;;;8.65;48.22
56614;BME280;75854;35.670;139.690;2024-03-08T02:44:44;100278.10;;;8.02;47.88
56614;BME280;75854;35.670;139.690;2024-03-08T02:47:13;100278.33;;;8.51;47.81
56614;BME280;75854;35.670;139.690;2024-03-08T02:49:44;100269.92;;;8.33;47.92
56614;BME280;75854;35.670;139.690;2024-03-08T02:52:13;100258.64;;;8.91;46.32
56614;BME280;75854;35.670;139.690;2024-03-08T02:54:43;100257.67;;;8.61;46.34
56614;BME280;75854;35.670;139.690;2024-03-08T02:57:13;100253.25;;;8.53;46.11
56614;BME280;75854;35.670;139.690;2024-03-08T02:59:42;100248.02;;;8.12;46.72
56614;BME280;75854;35.670;139.690;2024-03-08T03:02:12;100244.39;;;7.50;47.80
56614;BME280;75854;35.670;139.690;2024-03-08T03:04:42;100239.23;;;7.84;48.18
56614;BME280;75854;35.670;139.690;2024-03-08T03:07:11;100222.51;;;8.31;47.05
56614;BME280;75854;35.670;139.690;2024-03-08T03:09:41;100204.31;;;7.86;46.91
56614;BME280;75854;35.670;139.690;2024-03-08T03:12:10;100199.73;;;7.02;48.09
56614;BME280;75854;35.670;139.690;2024-03-08T03:14:40;100175.43;;;7.68;48.14
56614;BME280;75854;35.670;139.690;2024-03-08T03:17:09;100158.15;;;8.25;47.67
56614;BME280;75854;35.670;139.690;2024-03-08T03:19:42;100154.24;;;7.84;49.28
56614;BME280;75854;35.670;139.690;2024-03-08T03:22:11;100156.55;;;7.63;48.80
56614;BME280;75854;35.670;139.690;2024-03-08T03:24:41;100153.26;;;7.46;48.79
56614;BME280;75854;35.670;139.690;2024-03-08T03:27:10;100141.88;;;7.08;49.97
56614;BME280;75854;35.670;139.690;2024-03-08T03:29:40;100135.15;;;7.75;48.32
56614;BME280;75854;35.670;139.690;2024-03-08T03:32:10;100137.91;;;8.44;47.87
56614;BME280;75854;35.670;139.690;2024-03-08T03:34:40;100141.27;;;7.63;46.96
56614;BME280;75854;35.670;139.690;2024-03-08T03:37:09;100136.46;;;7.83;48.01
56614;BME280;75854;35.670;139.690;2024-03-08T03:39:40;100141.00;;;8.18;48.47
56614;BME280;75854;35.670;139.690;2024-03-08T03:42:09;100140.24;;;8.57;46.88
56614;BME280;75854;35.670;139.690;2024-03-08T03:44:39;100136.08;;;8.70;47.37
56614;BME280;75854;35.670;139.690;2024-03-08T03:47:08;100123.66;;;8.94;46.24
56614;BME280;75854;35.670;139.690;2024-03-08T03:49:39;100122.07;;;8.74;46.69
56614;BME280;75854;35.670;139.690;2024-03-08T03:52:09;100110.98;;;8.61;45.61
56614;BME280;75854;35.670;139.690;2024-03-08T03:54:39;100101.93;;;8.37;46.21
56614;BME280;75854;35.670;139.690;2024-03-08T03:57:08;100100.80;;;8.65;45.99
56614;BME280;75854;35.670;139.690;2024-03-08T03:59:38;100090.89;;;8.68;45.45
56614;BME280;75854;35.670;139.690;2024-03-08T04:02:08;100092.95;;;9.14;45.47
56614;BME280;75854;35.670;139.690;2024-03-08T04:04:38;100089.43;;;8.99;45.70
56614;BME280;75854;35.670;139.690;2024-03-08T04:07:08;100079.84;;;9.35;43.78
56614;BME280;75854;35.670;139.690;2024-03-08T04:09:37;100075.54;;;9.63;43.26
56614;BME280;75854;35.670;139.690;2024-03-08T04:12:07;100063.93;;;9.99;42.78
56614;BME280;75854;35.670;139.690;2024-03-08T04:14:37;100056.95;;;9.24;45.23
56614;BME280;75854;35.670;139.690;2024-03-08T04:17:08;100051.72;;;9.45;43.71
56614;BME280;75854;35.670;139.690;2024-03-08T04:19:38;100036.02;;;9.40;44.06
56614;BME280;75854;35.670;139.690;2024-03-08T04:22:07;100030.18;;;9.73;44.45
56614;BME280;75854;35.670;139.690;2024-03-08T04:24:37;100020.53;;;9.15;43.95
56614;BME280;75854;35.670;139.690;2024-03-08T04:27:07;100022.96;;;8.93;44.52
56614;BME280;75854;35.670;139.690;2024-03-08T04:29:36;100026.24;;;9.14;43.83
56614;BME280;75854;35.670;139.690;2024-03-08T04:32:07;100033.99;;;9.35;43.58
56614;BME280;75854;35.670;139.690;2024-03-08T04:34:37;100028.26;;;8.96;43.66
56614;BME280;75854;35.670;139.690;2024-03-08T04:37:06;100023.52;;;8.40;45.37
56614;BME280;75854;35.670;139.690;2024-03-08T04:39:36;100020.89;;;8.43;46.72
56614;BME280;75854;35.670;139.690;2024-03-08T04:42:06;100011.21;;;8.89;45.83
56614;BME280;75854;35.670;139.690;2024-03-08T04:44:37;100016.58;;;9.26;44.29
56614;BME280;75854;35.670;139.690;2024-03-08T04:47:07;100018.80;;;9.41;43.42
56614;BME280;75854;35.670;139.690;2024-03-08T04:49:36;100016.55;;;9.34;43.95
56614;BME280;75854;35.670;139.690;2024-03-08T04:52:06;100017.41;;;9.31;44.05
56614;BME280;75854;35.670;139.690;2024-03-08T04:54:36;100023.24;;;9.37;43.09
56614;BME280;75854;35.670;139.690;2024-03-08T04:57:06;100030.17;;;9.64;42.83
56614;BME280;75854;35.670;139.690;2024-03-08T04:59:37;100026.61;;;9.73;42.57
56614;BME280;75854;35.670;139.690;2024-03-08T05:02:07;100026.53;;;9.75;42.43
56614;BME280;75854;35.670;139.690;2024-03-08T05:04:36;100027.81;;;9.93;42.99
56614;BME280;75854;35.670;139.690;2024-03-08T05:07:06;100030.88;;;9.91;41.89
56614;BME280;75854;35.670;139.690;2024-03-08T05:09:35;100030.95;;;9.37;42.64
56614;BME280;75854;35.670;139.690;2024-03-08T05:12:05;100033.24;;;9.25;42.95
56614;BME280;75854;35.670;139.690;2024-03-08T05:14:34;100021.24;;;9.11;43.85
56614;BME280;75854;35.670;139.690;2024-03-08T05:17:04;100026.60;;;8.48;44.08
56614;BME280;75854;35.670;139.690;2024-03-08T05:19:34;100018.12;;;9.17;43.94
56614;BME280;75854;35.670;139.690;2024-03-08T05:22:03;100010.33;;;9.38;43.59
56614;BME280;75854;35.670;139.690;2024-03-08T05:24:33;100017.44;;;9.05;43.75
56614;BME280;75854;35.670;139.690;2024-03-08T05:27:03;100016.77;;;9.73;42.96
56614;BME280;75854;35.670;139.690;2024-03-08T05:29:33;100015.06;;;9.53;43.32
56614;BME280;75854;35.670;139.690;2024-03-08T05:32:02;100020.98;;;9.82;42.31
56614;BME280;75854;35.670;139.690;2024-03-08T05:34:33;100024.67;;;9.66;43.18
56614;BME280;75854;35.670;139.690;2024-03-08T05:37:02;100027.21;;;9.85;42.79
56614;BME280;75854;35.670;139.690;2024-03-08T05:39:32;100026.79;;;9.99;42.74
56614;BME280;75854;35.670;139.690;2024-03-08T05:42:02;100020.96;;;9.67;41.77
56614;BME280;75854;35.670;139.690;2024-03-08T05:44:31;100014.17;;;9.63;42.43
56614;BME280;75854;35.670;139.690;2024-03-08T05:47:01;100016.58;;;9.25;42.80
56614;BME280;75854;35.670;139.690;2024-03-08T05:49:31;100011.75;;;10.15;42.30
56614;BME280;75854;35.670;139.690;2024-03-08T05:52:01;100008.68;;;9.96;41.20
56614;BME280;75854;35.670;139.690;2024-03-08T05:54:30;100010.04;;;9.90;41.40
56614;BME280;75854;35.670;139.690;2024-03-08T05:57:00;100022.65;;;9.82;41.28
56614;BME280;75854;35.670;139.690;2024-03-08T05:59:30;100015.77;;;9.62;41.69
56614;BME280;75854;35.670;139.690;2024-03-08T06:01:59;100011.74;;;9.56;41.28
56614;BME280;75854;35.670;139.690;2024-03-08T06:04:29;100011.28;;;9.63;41.28
56614;BME280;75854;35.670;139.690;2024-03-08T06:06:59;100013.38;;;10.01;40.88
56614;BME280;75854;35.670;139.690;2024-03-08T06:09:29;100018.77;;;9.94;42.27
56614;BME280;75854;35.670;139.690;2024-03-08T06:11:58;100017.80;;;10.01;40.17
56614;BME280;75854;35.670;139.690;2024-03-08T06:14:28;100016.86;;;10.10;40.82
56614;BME280;75854;35.670;139.690;2024-03-08T06:16:58;100011.55;;;10.09;40.59
56614;BME280;75854;35.670;139.690;2024-03-08T06:19:27;100017.78;;;9.87;40.74
56614;BME280;75854;35.670;139.690;2024-03-08T06:21:57;100017.50;;;9.77;41.21
56614;BME280;75854;35.670;139.690;2024-03-08T06:24:26;100021.59;;;9.72;40.85
56614;BME280;75854;35.670;139.690;2024-03-08T06:26:56;100026.81;;;9.75;41.70
56614;BME280;75854;35.670;139.690;2024-03-08T06:29:26;100029.76;;;9.98;41.45
56614;BME280;75854;35.670;139.690;2024-03-08T06:31:55;100028.72;;;9.78;40.57
56614;BME280;75854;35.670;139.690;2024-03-08T06:34:25;100022.64;;;9.88;39.88
56614;BME280;75854;35.670;139.690;2024-03-08T06:36:56;100021.69;;;9.90;40.53
56614;BME280;75854;35.670;139.690;2024-03-08T06:39:26;100021.81;;;9.50;40.20
56614;BME280;75854;35.670;139.690;2024-03-08T06:41:55;100018.33;;;9.73;40.60
56614;BME280;75854;35.670;139.690;2024-03-08T06:44:24;100024.91;;;9.69;40.91
56614;BME280;75854;35.670;139.690;2024-03-08T06:46:54;100031.63;;;10.34;39.24
56614;BME280;75854;35.670;139.690;2024-03-08T06:49:23;100034.95;;;10.18;39.82
56614;BME280;75854;35.670;139.690;2024-03-08T06:51:53;100036.55;;;10.29;41.02
56614;BME280;75854;35.670;139.690;2024-03-08T06:54:28;100029.27;;;10.39;39.77
56614;BME280;75854;35.670;139.690;2024-03-08T06:56:57;100016.88;;;10.19;40.60
56614;BME280;75854;35.670;139.690;2024-03-08T06:59:27;100011.03;;;10.04;40.67
56614;BME280;75854;35.670;139.690;2024-03-08T07:01:57;100008.74;;;10.21;39.87
56614;BME280;75854;35.670;139.690;2024-03-08T07:04:26;100012.97;;;10.58;40.98
56614;BME280;75854;35.670;139.690;2024-03-08T07:06:56;100013.61;;;10.25;40.04
56614;BME280;75854;35.670;139.690;2024-03-08T07:09:25;100012.14;;;10.62;39.32
56614;BME280;75854;35.670;139.690;2024-03-08T07:11:54;100005.99;;;10.53;39.26
56614;BME280;75854;35.670;139.690;2024-03-08T07:14:26;100001.54;;;10.90;40.45
56614;BME280;75854;35.670;139.690;2024-03-08T07:16:55;99993.44;;;10.31;40.05
56614;BME280;75854;35.670;139.690;2024-03-08T07:19:25;100001.25;;;10.20;41.38
56614;BME280;75854;35.670;139.690;2024-03-08T07:21:55;100013.07;;;10.19;39.35
56614;BME280;75854;35.670;139.690;2024-03-08T07:24:29;100015.68;;;10.39;38.87
56614;BME280;75854;35.670;139.690;2024-03-08T07:26:59;100019.70;;;10.26;39.84
56614;BME280;75854;35.670;139.690;2024-03-08T07:29:28;100020.07;;;10.33;39.73
56614;BME280;75854;35.670;139.690;2024-03-08T07:31:58;100026.46;;;10.33;41.24
56614;BME280;75854;35.670;139.690;2024-03-08T07:34:27;100037.22;;;10.49;40.67
56614;BME280;75854;35.670;139.690;2024-03-08T07:36:56;100045.86;;;10.44;40.63
56614;BME280;75854;35.670;139.690;2024-03-08T07:39:26;100058.33;;;10.26;41.11
56614;BME280;75854;35.670;139.690;2024-03-08T07:41:56;100067.50;;;10.37;40.75
56614;BME280;75854;35.670;139.690;2024-03-08T07:44:27;100069.50;;;10.41;40.63
56614;BME280;75854;35.670;139.690;2024-03-08T07:46:57;100069.97;;;9.81;41.23
56614;BME280;75854;35.670;139.690;2024-03-08T07:49:27;100065.88;;;9.98;41.52
56614;BME280;75854;35.670;139.690;2024-03-08T07:51:56;100062.84;;;10.41;41.76
56614;BME280;75854;35.670;139.690;2024-03-08T07:54:26;100065.91;;;9.64;44.86
56614;BME280;75854;35.670;139.690;2024-03-08T07:56:56;100063.94;;;9.09;45.68
56614;BME280;75854;35.670;139.690;2024-03-08T07:59:25;100061.48;;;8.55;46.54
56614;BME280;75854;35.670;139.690;2024-03-08T08:01:55;100065.88;;;8.01;47.66
56614;BME280;75854;35.670;139.690;2024-03-08T08:04:25;100070.67;;;7.81;50.29
56614;BME280;75854;35.670;139.690;2024-03-08T08:06:55;100073.97;;;7.78;51.05
56614;BME280;75854;35.670;139.690;2024-03-08T08:09:24;100079.33;;;7.64;50.34
56614;BME280;75854;35.670;139.690;2024-03-08T08:11:54;100084.19;;;7.47;50.85
56614;BME280;75854;35.670;139.690;2024-03-08T08:14:24;100089.75;;;7.36;51.12
56614;BME280;75854;35.670;139.690;2024-03-08T08:16:53;100096.54;;;7.48;51.11
56614;BME280;75854;35.670;139.690;2024-03-08T08:19:24;100100.60;;;7.35;50.86
56614;BME280;75854;35.670;139.690;2024-03-08T08:21:54;100107.53;;;7.25;51.55
56614;BME280;75854;35.670;139.690;2024-03-08T08:24:23;100112.19;;;7.09;51.05
56614;BME280;75854;35.670;139.690;2024-03-08T08:26:53;100114.43;;;6.76;52.05
56614;BME280;75854;35.670;139.690;2024-03-08T08:29:23;100116.31;;;7.32;51.10
56614;BME280;75854;35.670;139.690;2024-03-08T08:31:53;100124.76;;;7.13;51.88
56614;BME280;75854;35.670;139.690;2024-03-08T08:34:22;100127.23;;;6.80;52.36
56614;BME280;75854;35.670;139.690;2024-03-08T08:36:52;100128.23;;;7.01;52.13
56614;BME280;75854;35.670;139.690;2024-03-08T08:39:22;100131.36;;;6.97;53.37
56614;BME280;75854;35.670;139.690;2024-03-08T08:41:52;100130.63;;;6.98;52.69
56614;BME280;75854;35.670;139.690;2024-03-08T08:44:21;100132.15;;;6.88;52.90
56614;BME280;75854;35.670;139.690;2024-03-08T08:46:51;100138.06;;;6.77;53.49
56614;BME280;75854;35.670;139.690;2024-03-08T08:49:21;100140.13;;;6.66;53.44
56614;BME280;75854;35.670;139.690;2024-03-08T08:51:52;100143.13;;;6.70;54.03
56614;BME280;75854;35.670;139.690;2024-03-08T08:54:21;100144.80;;;6.76;53.59
56614;BME280;75854;35.670;139.690;2024-03-08T08:56:51;100146.86;;;6.73;53.20
56614;BME280;75854;35.670;139.690;2024-03-08T08:59:21;100150.14;;;7.00;52.48
56614;BME280;75854;35.670;139.690;2024-03-08T09:01:50;100151.31;;;6.72;52.83
56614;BME280;75854;35.670;139.690;2024-03-08T09:04:20;100157.49;;;6.72;52.82
56614;BME280;75854;35.670;139.690;2024-03-08T09:06:49;100162.78;;;6.48;52.83
56614;BME280;75854;35.670;139.690;2024-03-08T09:09:18;100167.57;;;6.73;52.68
56614;BME280;75854;35.670;139.690;2024-03-08T09:11:48;100167.52;;;6.63;52.80
56614;BME280;75854;35.670;139.690;2024-03-08T09:14:17;100171.80;;;6.63;53.51
56614;BME280;75854;35.670;139.690;2024-03-08T09:16:47;100172.97;;;6.53;53.18
56614;BME280;75854;35.670;139.690;2024-03-08T09:19:17;100179.48;;;6.60;53.67
56614;BME280;75854;35.670;139.690;2024-03-08T09:21:47;100184.55;;;6.37;52.35
56614;BME280;75854;35.670;139.690;2024-03-08T09:24:16;100188.28;;;6.88;51.77
56614;BME280;75854;35.670;139.690;2024-03-08T09:26:46;100191.51;;;6.48;52.12
56614;BME280;75854;35.670;139.690;2024-03-08T09:29:15;100193.96;;;6.60;52.39
56614;BME280;75854;35.670;139.690;2024-03-08T09:31:45;100197.74;;;6.59;52.59
56614;BME280;75854;35.670;139.690;2024-03-08T09:34:14;100196.90;;;6.24;52.62
56614;BME280;75854;35.670;139.690;2024-03-08T09:36:44;100198.51;;;6.36;53.03
56614;BME280;75854;35.670;139.690;2024-03-08T09:39:13;100198.90;;;6.35;53.03
56614;BME280;75854;35.670;139.690;2024-03-08T09:41:43;100200.69;;;6.40;53.28
56614;BME280;75854;35.670;139.690;2024-03-08T09:44:13;100204.02;;;6.54;53.37
56614;BME280;75854;35.670;139.690;2024-03-08T09:46:42;100207.36;;;6.36;52.39
56614;BME280;75854;35.670;139.690;2024-03-08T09:49:12;100209.25;;;6.30;52.65
56614;BME280;75854;35.670;139.690;2024-03-08T09:51:42;100212.20;;;6.30;54.05
56614;BME280;75854;35.670;139.690;2024-03-08T09:54:12;100212.20;;;6.61;53.28
56614;BME280;75854;35.670;139.690;2024-03-08T09:56:42;100216.60;;;6.60;53.74
56614;BME280;75854;35.670;139.690;2024-03-08T09:59:12;100217.49;;;6.59;53.57
56614;BME280;75854;35.670;139.690;2024-03-08T10:01:41;100220.94;;;6.37;52.38
56614;BME280;75854;35.670;139.690;2024-03-08T10:04:11;100222.44;;;6.34;53.50
56614;BME280;75854;35.670;139.690;2024-03-08T10:06:40;100227.91;;;7.01;51.60
56614;BME280;75854;35.670;139.690;2024-03-08T10:09:11;100228.27;;;7.55;48.45
56614;BME280;75854;35.670;139.690;2024-03-08T10:11:41;100226.27;;;8.25;48.07
56614;BME280;75854;35.670;139.690;2024-03-08T10:14:11;100229.75;;;8.72;45.81
56614;BME280;75854;35.670;139.690;2024-03-08T10:16:40;100229.58;;;8.94;45.81
56614;BME280;75854;35.670;139.690;2024-03-08T10:19:10;100234.27;;;8.66;46.37
56614;BME280;75854;35.670;139.690;2024-03-08T10:21:50;100236.29;;;8.83;46.19
56614;BME280;75854;35.670;139.690;2024-03-08T10:24:20;100237.63;;;9.36;46.27
56614;BME280;75854;35.670;139.690;2024-03-08T10:26:51;100241.57;;;9.39;46.70
56614;BME280;75854;35.670;139.690;2024-03-08T10:29:21;100250.54;;;9.52;44.47
56614;BME280;75854;35.670;139.690;2024-03-08T10:31:51;100257.82;;;9.10;46.38
56614;BME280;75854;35.670;139.690;2024-03-08T10:34:20;100264.31;;;9.46;44.94
56614;BME280;75854;35.670;139.690;2024-03-08T10:36:51;100269.91;;;9.31;45.45
56614;BME280;75854;35.670;139.690;2024-03-08T10:39:25;100271.19;;;9.40;46.33
56614;BME280;75854;35.670;139.690;2024-03-08T10:42:00;100269.09;;;9.37;46.12
56614;BME280;75854;35.670;139.690;2024-03-08T10:44:47;100265.80;;;9.58;45.93
56614;BME280;75854;35.670;139.690;2024-03-08T10:47:23;100269.23;;;9.69;45.92
56614;BME280;75854;35.670;139.690;2024-03-08T10:50:03;100275.16;;;9.70;44.67
56614;BME280;75854;35.670;139.690;2024-03-08T10:52:39;100276.84;;;9.32;44.41
56614;BME280;75854;35.670;139.690;2024-03-08T10:55:11;100278.15;;;9.85;44.58
56614;BME280;75854;35.670;139.690;2024-03-08T10:57:42;100285.72;;;9.42;45.89
56614;BME280;75854;35.670;139.690;2024-03-08T11:00:14;100288.73;;;9.80;45.64
56614;BME280;75854;35.670;139.690;2024-03-08T11:02:45;100294.63;;;9.77;44.57
56614;BME280;75854;35.670;139.690;2024-03-08T11:05:37;100300.95;;;9.61;46.48
56614;BME280;75854;35.670;139.690;2024-03-08T11:08:18;100311.70;;;9.52;44.38
56614;BME280;75854;35.670;139.690;2024-03-08T11:10:49;100321.52;;;9.55;45.55
56614;BME280;75854;35.670;139.690;2024-03-08T11:13:43;100319.81;;;8.91;43.59
56614;BME280;75854;35.670;139.690;2024-03-08T11:16:36;100323.16;;;9.44;44.02
56614;BME280;75854;35.670;139.690;2024-03-08T11:19:23;100325.01;;;9.52;43.85
56614;BME280;75854;35.670;139.690;2024-03-08T11:22:03;100324.12;;;9.44;42.96
56614;BME280;75854;35.670;139.690;2024-03-08T11:24:40;100326.65;;;9.56;44.09
56614;BME280;75854;35.670;139.690;2024-03-08T11:27:11;100326.88;;;9.15;45.85
56614;BME280;75854;35.670;139.690;2024-03-08T11:29:42;100329.28;;;9.41;45.02
56614;BME280;75854;35.670;139.690;2024-03-08T11:32:14;100334.22;;;9.78;44.42
56614;BME280;75854;35.670;139.690;2024-03-08T11:34:46;100333.02;;;9.34;43.88
56614;BME280;75854;35.670;139.690;2024-03-08T11:37:18;100331.34;;;9.47;45.39
56614;BME280;75854;35.670;139.690;2024-03-08T11:39:50;100334.02;;;9.66;44.80
56614;BME280;75854;35.670;139.690;2024-03-08T11:42:20;100336.73;;;9.89;43.76
56614;BME280;75854;35.670;139.690;2024-03-08T11:44:52;100328.76;;;9.22;45.24
56614;BME280;75854;35.670;139.690;2024-03-08T11:47:22;100327.61;;;8.96;45.24
56614;BME280;75854;35.670;139.690;2024-03-08T11:49:51;100326.25;;;8.86;45.27
56614;BME280;75854;35.670;139.690;2024-03-08T11:52:24;100327.36;;;9.20;44.51
56614;BME280;75854;35.670;139.690;2024-03-08T11:54:54;100325.94;;;9.34;44.77
56614;BME280;75854;35.670;139.690;2024-03-08T11:57:24;100332.76;;;9.23;46.37
56614;BME280;75854;35.670;139.690;2024-03-08T11:59:55;100334.00;;;9.25;45.75
56614;BME280;75854;35.670;139.690;2024-03-08T12:02:25;100331.80;;;9.18;45.20
56614;BME280;75854;35.670;139.690;2024-03-08T12:05:00;100335.45;;;9.70;45.14
56614;BME280;75854;35.670;139.690;2024-03-08T12:07:30;100335.07;;;9.68;43.97
56614;BME280;75854;35.670;139.690;2024-03-08T12:10:32;100332.34;;;9.66;44.05
56614;BME280;75854;35.670;139.690;2024-03-08T12:13:02;100328.39;;;9.82;44.21
56614;BME280;75854;35.670;139.690;2024-03-08T12:15:33;100328.88;;;9.65;43.82
56614;BME280;75854;35.670;139.690;2024-03-08T12:18:02;100331.08;;;9.32;45.50
56614;BME280;75854;35.670;139.690;2024-03-08T12:20:33;100331.51;;;9.47;43.43
56614;BME280;75854;35.670;139.690;2024-03-08T12:23:03;100334.32;;;8.23;46.49
56614;BME280;75854;35.670;139.690;2024-03-08T12:25:33;100335.25;;;7.66;46.79
56614;BME280;75854;35.670;139.690;2024-03-08T12:28:10;100335.55;;;7.29;46.69
56614;BME280;75854;35.670;139.690;2024-03-08T12:30:47;100334.73;;;6.82;49.11
56614;BME280;75854;35.670;139.690;2024-03-08T12:33:17;100334.45;;;7.07;50.75
56614;BME280;75854;35.670;139.690;2024-03-08T12:35:52;100331.82;;;6.96;51.82
56614;BME280;75854;35.670;139.690;2024-03-08T12:38:22;100328.07;;;6.75;52.11
56614;BME280;75854;35.670;139.690;2024-03-08T12:40:57;100324.47;;;6.51;52.14
56614;BME280;75854;35.670;139.690;2024-03-08T12:43:28;100327.33;;;6.31;53.14
56614;BME280;75854;35.670;139.690;2024-03-08T12:45:58;100326.41;;;6.41;53.32
56614;BME280;75854;35.670;139.690;2024-03-08T12:48:28;100327.55;;;6.28;53.59
56614;BME280;75854;35.670;139.690;2024-03-08T12:50:57;100324.05;;;5.89;53.57
56614;BME280;75854;35.670;139.690;2024-03-08T12:53:27;100324.00;;;5.88;53.15
56614;BME280;75854;35.670;139.690;2024-03-08T12:55:56;100327.63;;;5.75;53.30